Time;durP1;ratioP1;P1;durP2;ratioP2;P2;SDS_P1;SDS_P2;PMS_P1;PMS_P2;Temp;Humidity;BMP_temperature;BMP_pressure;BME280_temperature;BME280_humidity;BME280_pressure;Samples;Min_cycle;Max_cycle;Signal;HPM_P1;HPM_P2
2022/03/03 00:01:46;;;;;;;0.00;0.00;;;;;;;23.10;43.19;102210.81;5053472;28;20104;-62
2022/03/03 00:04:11;;;;;;;0.00;0.00;;;;;;;23.10;43.18;102214.41;5053557;28;20119;-62
2022/03/03 00:06:37;;;;;;;0.00;0.00;;;;;;;23.08;43.57;102213.72;5053064;28;20052;-61
2022/03/03 00:09:04;;;;;;;0.00;0.00;;;;;;;23.06;43.23;102210.31;5053343;28;20361;-61
2022/03/03 00:11:30;;;;;;;0.00;0.00;;;;;;;23.06;43.57;102210.31;5053076;28;20029;-62
2022/03/03 00:13:58;;;;;;;0.00;0.00;;;;;;;23.05;43.20;102213.22;5053299;28;20380;-60
2022/03/03 00:16:24;;;;;;;0.00;0.00;;;;;;;23.04;42.85;102217.84;5054714;28;20025;-61
2022/03/03 00:18:50;;;;;;;0.00;0.00;;;;;;;23.04;43.12;102211.50;5053235;28;20033;-62
2022/03/03 00:21:15;;;;;;;0.00;0.00;;;;;;;23.04;43.33;102217.00;5049364;28;20028;-61
2022/03/03 00:23:41;;;;;;;0.00;0.00;;;;;;;23.02;43.20;102219.91;5037916;28;20029;-61
2022/03/03 00:26:06;;;;;;;0.13;0.00;;;;;;;23.01;42.86;102211.81;5052995;28;20025;-63
2022/03/03 00:28:31;;;;;;;0.05;0.05;;;;;;;23.00;43.12;102207.38;5052583;28;20091;-61
2022/03/03 00:30:57;;;;;;;0.00;0.00;;;;;;;23.01;42.98;102212.72;5053021;28;20468;-62
2022/03/03 00:33:22;;;;;;;0.00;0.00;;;;;;;22.98;43.33;102213.03;5052080;28;20029;-63
2022/03/03 00:35:47;;;;;;;0.00;0.00;;;;;;;23.00;43.16;102216.44;5052708;28;20035;-61
2022/03/03 00:38:13;;;;;;;0.00;0.00;;;;;;;22.99;42.68;102230.34;5048435;28;20026;-62
2022/03/03 00:40:39;;;;;;;0.00;0.00;;;;;;;22.97;42.70;102233.25;5032726;28;20531;-63
2022/03/03 00:43:06;;;;;;;0.35;0.17;;;;;;;22.97;42.50;102227.75;5032768;28;20460;-61
2022/03/03 00:45:35;;;;;;;0.43;0.00;;;;;;;22.96;42.79;102209.59;5032563;28;20380;-62
2022/03/03 00:48:01;;;;;;;0.00;0.00;;;;;;;22.95;43.32;102207.88;5032821;28;20021;-63
2022/03/03 00:50:27;;;;;;;0.00;0.00;;;;;;;22.94;42.40;102210.81;5032228;28;20039;-61
2022/03/03 00:52:53;;;;;;;0.00;0.00;;;;;;;22.95;42.61;102223.47;5051011;28;20068;-61
2022/03/03 00:55:18;;;;;;;0.03;0.03;;;;;;;22.93;42.36;102223.66;5052435;28;20061;-63
2022/03/03 00:57:44;;;;;;;0.00;0.00;;;;;;;22.93;42.76;102226.41;5052472;28;20181;-61
2022/03/03 01:00:10;;;;;;;0.00;0.00;;;;;;;22.94;42.77;102227.25;5052375;28;20468;-61
2022/03/03 01:02:35;;;;;;;0.10;0.10;;;;;;;22.93;42.11;102220.06;5052308;28;20028;-63
2022/03/03 01:05:02;;;;;;;0.00;0.00;;;;;;;22.91;42.29;102211.13;5050896;28;20037;-61
2022/03/03 01:07:27;;;;;;;0.00;0.00;;;;;;;22.92;42.80;102210.97;5052168;28;20024;-61
2022/03/03 01:09:53;;;;;;;0.00;0.00;;;;;;;22.92;42.46;102223.81;5052349;28;20043;-62
2022/03/03 01:12:18;;;;;;;0.00;0.00;;;;;;;22.92;42.88;102232.91;5051848;28;20017;-61
2022/03/03 01:14:44;;;;;;;0.03;0.00;;;;;;;22.91;42.03;102236.69;5052329;28;20024;-61
2022/03/03 01:17:09;;;;;;;0.00;0.00;;;;;;;22.91;42.34;102231.19;5052212;28;20056;-63
2022/03/03 01:19:34;;;;;;;0.00;0.00;;;;;;;22.91;41.77;102236.69;5052218;28;20025;-61
2022/03/03 01:22:00;;;;;;;0.00;0.00;;;;;;;22.89;41.90;102238.75;5040625;28;20401;-61
2022/03/03 01:24:25;;;;;;;0.10;0.00;;;;;;;22.91;42.25;102239.41;5031824;28;20384;-62
2022/03/03 01:26:50;;;;;;;0.00;0.00;;;;;;;22.89;41.90;102233.25;5032260;28;20021;-61
2022/03/03 01:29:16;;;;;;;0.00;0.00;;;;;;;22.89;41.78;102230.50;5032852;28;20463;-61
2022/03/03 01:31:41;;;;;;;0.00;0.00;;;;;;;22.89;41.82;102219.53;5033073;28;20026;-63
2022/03/03 01:34:08;;;;;;;0.00;0.00;;;;;;;22.89;42.34;102214.06;5032415;28;20021;-60
2022/03/03 01:36:34;;;;;;;0.00;0.00;;;;;;;22.88;42.31;102217.81;5031799;28;20443;-61
2022/03/03 01:38:59;;;;;;;0.10;0.10;;;;;;;22.87;41.88;102221.59;5032159;28;20027;-61
2022/03/03 01:41:25;;;;;;;0.00;0.00;;;;;;;22.87;41.96;102220.75;5031963;28;20389;-60
2022/03/03 01:43:50;;;;;;;0.00;0.00;;;;;;;22.88;41.51;102223.31;5032171;28;20042;-60
2022/03/03 01:46:16;;;;;;;0.00;0.00;;;;;;;22.87;41.70;102227.09;5034481;28;20034;-62
2022/03/03 01:48:45;;;;;;;0.00;0.00;;;;;;;22.86;41.37;102224.50;5036051;28;20017;-61
2022/03/03 01:51:11;;;;;;;0.00;0.00;;;;;;;22.86;41.77;102219.03;5039951;28;20037;-61
2022/03/03 01:53:37;;;;;;;0.00;0.00;;;;;;;22.87;41.98;102221.59;5055927;28;20021;-62
2022/03/03 01:56:02;;;;;;;0.00;0.00;;;;;;;22.85;41.67;102218.16;5055863;28;20032;-61
2022/03/03 01:58:28;;;;;;;0.00;0.00;;;;;;;22.86;41.31;102227.25;5055415;28;20040;-61
2022/03/03 02:00:53;;;;;;;0.00;0.00;;;;;;;22.85;41.39;102226.41;5056097;28;20029;-62
2022/03/03 02:03:19;;;;;;;0.10;0.00;;;;;;;22.82;41.30;102229.44;5055589;28;20101;-60
2022/03/03 02:05:45;;;;;;;0.00;0.00;;;;;;;22.85;41.91;102234.63;5055563;28;20045;-61
2022/03/03 02:08:10;;;;;;;0.00;0.00;;;;;;;22.84;41.96;102232.88;5056464;28;20023;-61
2022/03/03 02:10:35;;;;;;;0.00;0.00;;;;;;;22.81;41.53;102234.03;5055553;28;20090;-61
2022/03/03 02:13:01;;;;;;;0.00;0.00;;;;;;;22.81;41.85;102224.97;5055586;28;20379;-61
2022/03/03 02:15:26;;;;;;;0.00;0.00;;;;;;;22.81;41.83;102222.22;5055318;28;20048;-61
2022/03/03 02:17:51;;;;;;;0.10;0.00;;;;;;;22.80;41.20;102221.34;5052748;28;20029;-61
2022/03/03 02:20:21;;;;;;;0.00;0.00;;;;;;;22.80;40.78;102198.56;5038355;28;20029;-61
2022/03/03 02:22:48;;;;;;;0.00;0.00;;;;;;;22.80;41.21;102212.28;5035488;28;20025;-61
2022/03/03 02:25:13;;;;;;;0.00;0.00;;;;;;;22.81;40.95;102222.22;5035214;28;20029;-61
2022/03/03 02:27:40;;;;;;;0.00;0.00;;;;;;;22.81;41.46;102216.72;5035620;28;20029;-60
2022/03/03 02:30:06;;;;;;;0.10;0.00;;;;;;;22.78;41.60;102209.72;5035254;28;20063;-61
2022/03/03 02:32:31;;;;;;;0.00;0.00;;;;;;;22.79;41.36;102202.34;5034859;28;20025;-61
2022/03/03 02:34:56;;;;;;;0.00;0.00;;;;;;;22.80;41.55;102204.06;5035198;28;20025;-61
2022/03/03 02:37:21;;;;;;;0.00;0.00;;;;;;;22.79;41.02;102196.84;5033623;28;20096;-61
2022/03/03 02:39:47;;;;;;;0.00;0.00;;;;;;;22.78;40.94;102204.22;5035135;28;20036;-61
2022/03/03 02:42:12;;;;;;;0.10;0.10;;;;;;;22.78;40.71;102189.66;5034907;28;20108;-61
2022/03/03 02:44:38;;;;;;;0.00;0.00;;;;;;;22.78;40.90;102178.69;5034837;28;20075;-61
2022/03/03 02:47:03;;;;;;;0.00;0.00;;;;;;;22.78;40.85;102184.16;5042920;28;20036;-61
2022/03/03 02:49:29;;;;;;;0.00;0.00;;;;;;;22.78;40.92;102175.94;5054813;28;20353;-61
2022/03/03 02:51:54;;;;;;;0.00;0.00;;;;;;;22.78;40.62;102195.13;5055815;28;20025;-61
2022/03/03 02:54:20;;;;;;;0.00;0.00;;;;;;;22.79;40.65;102185.88;5054404;28;20052;-61
2022/03/03 02:59:29;;;;;;;0.00;0.00;;;;;;;22.78;40.51;102179.53;5054382;28;20070;-61
2022/03/03 03:01:55;;;;;;;0.00;0.00;;;;;;;22.77;40.88;102171.50;5054608;28;20025;-62
2022/03/03 03:04:20;;;;;;;0.00;0.00;;;;;;;22.77;40.55;102171.50;5054108;28;20031;-61
2022/03/03 03:06:45;;;;;;;0.00;0.00;;;;;;;22.77;40.73;102172.34;5054425;28;20045;-61
2022/03/03 03:09:10;;;;;;;0.00;0.00;;;;;;;22.76;40.75;102175.25;5054085;28;20028;-62
2022/03/03 03:11:36;;;;;;;0.00;0.00;;;;;;;22.76;40.99;102192.56;5054450;28;20044;-61
2022/03/03 03:14:01;;;;;;;0.00;0.00;;;;;;;22.76;40.90;102186.22;5054416;28;20035;-61
2022/03/03 03:16:27;;;;;;;0.03;0.00;;;;;;;22.77;40.97;102185.19;5048599;28;20060;-62
2022/03/03 03:18:52;;;;;;;0.00;0.00;;;;;;;22.75;40.95;102176.28;5034456;28;20028;-61
2022/03/03 03:21:17;;;;;;;0.10;0.00;;;;;;;22.77;40.75;102171.50;5034411;28;20025;-61
2022/03/03 03:23:42;;;;;;;0.00;0.00;;;;;;;22.77;40.96;102160.53;5034365;28;20052;-61
2022/03/03 03:26:08;;;;;;;0.00;0.00;;;;;;;22.75;40.17;102162.59;5034144;28;20021;-61
2022/03/03 03:28:33;;;;;;;0.00;0.00;;;;;;;22.76;40.05;102169.78;5033926;28;20029;-61
2022/03/03 03:30:58;;;;;;;0.10;0.10;;;;;;;22.75;40.64;102162.59;5035961;28;20025;-62
2022/03/03 03:33:24;;;;;;;0.00;0.00;;;;;;;22.74;40.12;102161.72;5033926;28;20029;-61
2022/03/03 03:35:49;;;;;;;0.00;0.00;;;;;;;22.75;40.74;102165.31;5034061;28;20025;-61
2022/03/03 03:38:14;;;;;;;0.00;0.00;;;;;;;22.75;40.29;102162.59;5033648;28;20017;-63
2022/03/03 03:40:40;;;;;;;0.00;0.00;;;;;;;22.73;40.82;102165.50;5034184;28;20029;-60
2022/03/03 03:43:05;;;;;;;0.10;0.00;;;;;;;22.74;40.50;102166.34;5034252;28;20067;-61
2022/03/03 03:45:31;;;;;;;0.00;0.00;;;;;;;22.75;39.71;102179.03;5033949;28;20030;-61
2022/03/03 03:47:57;;;;;;;0.00;0.00;;;;;;;22.73;39.83;102181.09;5049327;28;20024;-60
2022/03/03 03:50:22;;;;;;;0.00;0.00;;;;;;;22.73;40.01;102165.50;5033405;28;20021;-61
2022/03/03 03:52:48;;;;;;;0.00;0.00;;;;;;;22.74;39.84;102161.72;5033836;28;20112;-62
2022/03/03 03:55:13;;;;;;;0.00;0.00;;;;;;;22.72;39.70;102151.97;5033649;28;20495;-61
2022/03/03 03:57:39;;;;;;;0.00;0.00;;;;;;;22.72;40.15;102162.94;5033927;28;20025;-61
2022/03/03 04:00:08;;;;;;;0.00;0.00;;;;;;;22.73;40.23;102164.63;5048588;28;20035;-63
2022/03/03 04:02:33;;;;;;;0.00;0.00;;;;;;;22.73;39.96;102161.91;5053082;28;20033;-61
2022/03/03 04:04:58;;;;;;;0.00;0.00;;;;;;;22.73;39.79;102175.59;5053357;28;20136;-61
2022/03/03 04:07:24;;;;;;;0.00;0.00;;;;;;;22.72;39.60;102180.22;5053489;28;20025;-62
2022/03/03 04:09:49;;;;;;;0.00;0.00;;;;;;;22.73;40.01;102175.59;5053864;28;20017;-61
2022/03/03 04:12:14;;;;;;;0.00;0.00;;;;;;;22.72;39.49;102151.97;5053092;28;20534;-61
2022/03/03 04:14:40;;;;;;;0.00;0.00;;;;;;;22.72;39.89;102154.69;5053166;28;20024;-62
2022/03/03 04:17:06;;;;;;;0.00;0.00;;;;;;;22.72;40.15;102157.44;5051517;28;20032;-60
2022/03/03 04:19:31;;;;;;;0.00;0.00;;;;;;;22.71;39.94;102153.84;5053309;28;20486;-61
2022/03/03 04:21:56;;;;;;;0.15;0.00;;;;;;;22.71;39.46;102156.59;5053099;28;20052;-62
2022/03/03 04:24:22;;;;;;;0.00;0.00;;;;;;;22.72;39.82;102157.44;5052695;28;20025;-61
2022/03/03 04:26:47;;;;;;;0.00;0.00;;;;;;;22.71;39.67;102161.22;5053031;28;20021;-61
2022/03/03 04:29:12;;;;;;;0.00;0.00;;;;;;;22.70;39.76;102165.84;5052813;28;20024;-62
2022/03/03 04:31:38;;;;;;;0.00;0.00;;;;;;;22.70;39.97;102160.34;5053060;28;20090;-60
2022/03/03 04:34:03;;;;;;;0.00;0.00;;;;;;;22.71;39.25;102161.22;5052898;28;20036;-61
2022/03/03 04:36:28;;;;;;;0.00;0.00;;;;;;;22.69;39.20;102161.38;5052388;28;20530;-62
2022/03/03 04:38:54;;;;;;;0.00;0.00;;;;;;;22.71;39.55;102163.94;5033507;28;20021;-61
2022/03/03 04:41:20;;;;;;;0.00;0.00;;;;;;;22.69;39.93;102163.28;5032934;28;20025;-61
2022/03/03 04:43:45;;;;;;;0.00;0.00;;;;;;;22.69;39.68;102158.63;5032850;28;20420;-61
2022/03/03 04:46:11;;;;;;;0.00;0.00;;;;;;;22.69;39.90;102157.78;5032687;28;20067;-61
2022/03/03 04:48:36;;;;;;;0.00;0.00;;;;;;;22.70;39.19;102156.75;5032574;28;20029;-61
2022/03/03 04:51:01;;;;;;;0.00;0.00;;;;;;;22.70;39.52;102167.72;5032739;28;20079;-62
2022/03/03 04:53:27;;;;;;;0.00;0.00;;;;;;;22.69;39.08;102164.13;5032470;28;20032;-60
2022/03/03 04:55:54;;;;;;;0.00;0.00;;;;;;;22.69;39.35;102163.28;5032710;28;20033;-61
2022/03/03 04:58:19;;;;;;;0.00;0.00;;;;;;;22.70;38.96;102162.25;5032103;28;20083;-62
2022/03/03 05:00:46;;;;;;;0.00;0.00;;;;;;;22.69;39.63;102163.28;5032592;28;20460;-61
2022/03/03 05:03:11;;;;;;;0.10;0.10;;;;;;;22.92;38.42;102169.84;5032430;28;20100;-61
2022/03/03 05:05:36;;;;;;;0.10;0.00;;;;;;;23.03;38.41;102172.25;5032244;28;20548;-62
2022/03/03 05:08:02;;;;;;;0.00;0.00;;;;;;;23.13;38.57;102171.22;5043902;28;20029;-60
2022/03/03 05:10:27;;;;;;;0.00;0.00;;;;;;;23.18;38.01;102166.06;5051963;28;20031;-61
2022/03/03 05:12:52;;;;;;;0.00;0.00;;;;;;;23.25;38.42;102156.97;5052120;28;20037;-61
2022/03/03 05:15:18;;;;;;;0.00;0.00;;;;;;;23.31;37.44;102169.16;5052067;28;20068;-60
2022/03/03 05:17:43;;;;;;;0.00;0.00;;;;;;;23.36;37.36;102172.25;5052256;28;20064;-61
2022/03/03 05:20:09;;;;;;;0.00;0.00;;;;;;;23.40;37.86;102168.13;5051710;28;20032;-62
2022/03/03 05:22:34;;;;;;;0.03;0.03;;;;;;;23.44;37.85;102161.25;5051912;28;20472;-60
2022/03/03 05:25:01;;;;;;;0.00;0.00;;;;;;;23.49;37.19;102174.44;5052049;28;20053;-61
2022/03/03 05:27:26;;;;;;;0.00;0.00;;;;;;;23.51;36.83;102178.72;5051099;28;20024;-61
2022/03/03 05:29:52;;;;;;;0.00;0.00;;;;;;;23.54;37.43;102172.91;5052260;28;20025;-61
2022/03/03 05:32:18;;;;;;;0.00;0.00;;;;;;;23.56;37.30;102173.59;5051678;28;20021;-61
2022/03/03 05:34:43;;;;;;;0.00;0.00;;;;;;;23.59;36.93;102170.53;5052190;28;20052;-61
2022/03/03 05:37:08;;;;;;;0.00;0.00;;;;;;;23.63;37.13;102162.78;5043866;28;20041;-61
2022/03/03 05:39:35;;;;;;;0.00;0.00;;;;;;;23.65;36.72;102172.56;5032101;28;20139;-62
2022/03/03 05:42:00;;;;;;;0.00;0.00;;;;;;;23.67;36.91;102175.97;5032185;28;20392;-62
2022/03/03 05:44:27;;;;;;;0.00;0.00;;;;;;;23.66;36.54;102177.03;5031678;28;20017;-61
2022/03/03 05:46:55;;;;;;;0.00;0.00;;;;;;;23.67;36.15;102184.22;5032453;28;20021;-61
2022/03/03 05:49:22;;;;;;;0.00;0.00;;;;;;;23.68;36.66;102185.97;5031963;28;20025;-62
2022/03/03 05:51:47;;;;;;;0.00;0.00;;;;;;;23.70;35.75;102188.53;5032409;28;20108;-60
2022/03/03 05:54:12;;;;;;;0.20;0.00;;;;;;;23.70;36.38;102192.13;5038126;28;20103;-61
2022/03/03 05:56:42;;;;;;;0.00;0.00;;;;;;;23.73;36.33;102192.81;5051708;28;20029;-62
2022/03/03 05:59:12;;;;;;;0.00;0.00;;;;;;;23.72;35.97;102194.72;5051821;28;20025;-60
2022/03/03 06:01:40;;;;;;;0.00;0.00;;;;;;;23.73;36.04;102185.44;5051967;28;20017;-61
2022/03/03 06:04:07;;;;;;;0.00;0.00;;;;;;;23.73;35.47;102187.31;5052441;28;20087;-62
2022/03/03 06:06:36;;;;;;;0.00;0.00;;;;;;;23.75;35.44;102168.78;5049570;28;20377;-60
2022/03/03 06:09:11;;;;;;;0.00;0.00;;;;;;;23.76;35.96;102167.75;5031930;28;20029;-61
2022/03/03 06:12:00;;;;;;;0.00;0.00;;;;;;;23.78;35.50;102176.66;5031869;28;20029;-61
2022/03/03 06:14:36;;;;;;;0.00;0.00;;;;;;;23.77;35.51;102180.44;5031387;28;20043;-61
2022/03/03 06:17:02;;;;;;;0.00;0.00;;;;;;;23.79;35.36;102172.88;5031770;28;20029;-61
2022/03/03 06:19:29;;;;;;;0.00;0.00;;;;;;;23.80;35.30;102185.56;5031582;28;20029;-61
2022/03/03 06:21:54;;;;;;;0.00;0.00;;;;;;;23.80;35.10;102185.56;5031802;28;20052;-60
2022/03/03 06:24:19;;;;;;;0.00;0.00;;;;;;;23.81;35.35;102192.78;5031410;28;20461;-60
2022/03/03 06:26:47;;;;;;;0.00;0.00;;;;;;;23.82;35.13;102200.00;5032609;28;20060;-62
2022/03/03 06:29:13;;;;;;;0.28;0.10;;;;;;;23.83;35.06;102193.47;5031703;28;20033;-61
2022/03/03 06:31:38;;;;;;;0.00;0.00;;;;;;;23.83;34.87;102197.06;5031844;28;20136;-61
2022/03/03 06:34:03;;;;;;;0.00;0.00;;;;;;;23.84;34.76;102208.91;5035248;28;20373;-62
2022/03/03 06:36:28;;;;;;;0.00;0.00;;;;;;;23.84;35.01;102207.00;5037629;28;20029;-60
2022/03/03 06:38:54;;;;;;;0.00;0.00;;;;;;;23.84;35.48;102206.16;5055531;28;20029;-60
2022/03/03 06:41:19;;;;;;;0.00;0.00;;;;;;;23.87;35.09;102211.31;5055136;28;20058;-63
2022/03/03 06:43:44;;;;;;;0.00;0.00;;;;;;;23.88;35.44;102215.78;5054963;28;20040;-61
2022/03/03 06:46:10;;;;;;;0.00;0.00;;;;;;;23.87;34.92;102208.56;5054833;28;20151;-61
2022/03/03 06:48:35;;;;;;;0.00;0.00;;;;;;;23.87;35.22;102208.56;5054668;28;20495;-64
2022/03/03 06:51:03;;;;;;;0.00;0.00;;;;;;;23.89;35.20;102217.50;5054812;28;20040;-61
2022/03/03 06:53:31;;;;;;;0.00;0.00;;;;;;;23.89;34.65;102206.50;5054641;28;20109;-61
2022/03/03 06:56:09;;;;;;;0.00;0.00;;;;;;;23.89;35.45;102212.00;5054774;28;20449;-62
2022/03/03 06:58:35;;;;;;;0.00;0.00;;;;;;;23.89;35.25;102195.53;5054226;28;20017;-61
2022/03/03 07:01:21;;;;;;;0.00;0.00;;;;;;;23.89;34.86;102201.03;5055030;28;20040;-61
2022/03/03 07:03:47;;;;;;;0.00;0.00;;;;;;;23.89;34.64;102201.88;5060681;22;20183;-62
2022/03/03 07:06:13;;;;;;;0.00;0.00;;;;;;;23.90;35.11;102205.47;5029998;28;20044;-61
2022/03/03 07:08:39;;;;;;;0.00;0.00;;;;;;;23.91;34.57;102231.91;5028961;28;20022;-60
2022/03/03 07:11:05;;;;;;;0.00;0.00;;;;;;;23.91;34.85;102220.91;5014701;28;20026;-63
2022/03/03 07:13:31;;;;;;;0.00;0.00;;;;;;;23.91;34.46;102227.28;5026049;28;20472;-61
2022/03/03 07:16:12;;;;;;;0.00;0.00;;;;;;;23.91;35.23;102230.00;5034777;28;20220;-61
2022/03/03 07:18:42;;;;;;;0.00;0.00;;;;;;;23.94;34.47;102223.31;5034813;28;20032;-62
2022/03/03 07:21:26;;;;;;;0.00;0.00;;;;;;;23.94;34.50;102217.81;5034851;28;20025;-60
2022/03/03 07:24:02;;;;;;;0.20;0.00;;;;;;;23.94;34.62;102220.56;5034373;28;20029;-61
2022/03/03 07:26:28;;;;;;;0.00;0.00;;;;;;;23.95;34.76;102225.03;5033958;28;20025;-61
2022/03/03 07:28:59;;;;;;;0.00;0.00;;;;;;;23.94;34.80;102226.06;5031712;28;20024;-61
2022/03/03 07:31:26;;;;;;;0.00;0.00;;;;;;;23.94;35.15;102231.56;5030324;28;20099;-60
2022/03/03 07:33:58;;;;;;;0.00;0.00;;;;;;;23.94;35.07;102237.03;5031269;28;20017;-61
2022/03/03 07:36:32;;;;;;;0.00;0.00;;;;;;;23.94;35.05;102232.41;5022688;28;20407;-60
2022/03/03 07:39:00;;;;;;;0.00;0.00;;;;;;;23.94;34.36;102237.03;5025338;28;20114;-60
2022/03/03 07:41:27;;;;;;;0.00;0.00;;;;;;;23.95;34.32;102238.75;5030933;28;20026;-60
2022/03/03 07:43:54;;;;;;;0.00;0.00;;;;;;;23.96;34.61;102235.84;5032487;28;20464;-62
2022/03/03 07:46:20;;;;;;;0.68;0.10;;;;;;;23.95;34.61;102241.50;5033308;28;20535;-61
2022/03/03 07:48:46;;;;;;;0.10;0.05;;;;;;;23.95;34.66;102205.78;5033552;28;20115;-62
2022/03/03 07:51:12;;;;;;;0.63;0.03;;;;;;;23.94;34.43;102201.34;5029103;28;20143;-61
2022/03/03 07:53:38;;;;;;;0.20;0.00;;;;;;;23.89;35.29;102196.38;5026442;28;20156;-60
2022/03/03 07:56:05;;;;;;;3.20;0.80;;;;;;;23.75;37.39;102237.44;5028891;28;20030;-61
2022/03/03 07:58:39;;;;;;;7.47;0.65;;;;;;;23.75;36.13;102248.41;5032576;28;20083;-60
2022/03/03 08:01:07;;;;;;;21.70;3.97;;;;;;;23.86;36.89;102242.56;5031111;28;20021;-61
2022/03/03 08:03:32;;;;;;;14.00;3.75;;;;;;;23.88;36.12;102248.75;5021442;28;20479;-60
2022/03/03 08:05:58;;;;;;;14.48;4.85;;;;;;;23.88;36.64;102246.00;5025500;28;20109;-60
2022/03/03 08:08:26;;;;;;;17.88;6.00;;;;;;;23.89;36.16;102251.31;5027473;28;20062;-60
2022/03/03 08:10:57;;;;;;;39.88;9.10;;;;;;;23.92;36.40;102234.47;5033025;28;20029;-60
2022/03/03 08:13:26;;;;;;;27.27;9.32;;;;;;;23.96;36.72;102245.97;5032016;28;20485;-61
2022/03/03 08:15:52;;;;;;;35.20;11.98;;;;;;;23.92;36.87;102250.09;5032838;28;20033;-60
2022/03/03 08:18:17;;;;;;;33.50;13.25;;;;;;;23.92;37.59;102187.78;5031693;28;20022;-59
2022/03/03 08:20:42;;;;;;;38.95;17.02;;;;;;;23.97;37.89;102192.75;5031774;28;20029;-60
2022/03/03 08:23:08;;;;;;;39.15;20.10;;;;;;;23.63;41.68;102188.34;5031179;28;20026;-59
2022/03/03 08:25:35;;;;;;;78.20;34.05;;;;;;;23.43;43.71;102255.59;5030165;28;20079;-59
2022/03/03 08:28:02;;;;;;;92.60;39.53;;;;;;;23.53;43.74;102259.03;5031114;28;20026;-61
2022/03/03 08:30:29;;;;;;;100.95;45.25;;;;;;;23.48;45.24;102255.94;5032249;28;20051;-60
2022/03/03 08:33:08;;;;;;;105.43;44.33;;;;;;;23.64;45.15;102263.34;5031767;28;20029;-63
2022/03/03 08:35:39;;;;;;;122.80;49.08;;;;;;;23.58;46.13;102256.66;5031827;28;20543;-60
2022/03/03 08:38:16;;;;;;;109.60;47.25;;;;;;;23.53;46.10;102256.28;5031412;28;20095;-60
2022/03/03 08:40:46;;;;;;;103.85;43.85;;;;;;;23.64;46.40;102253.22;5032304;28;20071;-60
2022/03/03 08:43:14;;;;;;;97.65;44.45;;;;;;;23.51;46.51;102269.31;5031645;28;20033;-61
2022/03/03 08:45:39;;;;;;;99.05;46.17;;;;;;;23.49;47.92;102268.63;5031506;28;20048;-60
2022/03/03 08:48:08;;;;;;;100.63;44.35;;;;;;;23.48;48.76;102268.78;5028776;28;20457;-60
2022/03/03 08:50:36;;;;;;;106.75;48.97;;;;;;;23.51;48.50;102277.53;5019007;28;20061;-60
2022/03/03 08:53:03;;;;;;;88.57;40.10;;;;;;;23.81;46.89;102272.41;5031204;28;20045;-60
2022/03/03 08:55:31;;;;;;;77.10;35.70;;;;;;;23.91;46.75;102270.38;5031110;28;20036;-60
2022/03/03 08:57:58;;;;;;;67.47;33.15;;;;;;;23.94;46.64;102275.50;5018941;28;20474;-60
2022/03/03 09:00:23;;;;;;;60.70;29.95;;;;;;;23.96;46.31;102278.94;5012009;28;20036;-60
2022/03/03 09:02:49;;;;;;;56.28;28.50;;;;;;;23.96;46.48;102279.78;5012099;28;20029;-62
2022/03/03 09:05:15;;;;;;;57.90;28.90;;;;;;;23.99;46.72;102289.56;5033862;28;20049;-61
2022/03/03 09:07:41;;;;;;;55.38;27.25;;;;;;;23.98;46.67;102283.22;5029278;28;20052;-61
2022/03/03 09:10:07;;;;;;;55.58;28.30;;;;;;;24.00;46.32;102291.28;5029830;28;21669;-61
2022/03/03 09:12:33;;;;;;;47.05;25.17;;;;;;;23.99;47.10;102298.66;5030362;28;20147;-60
2022/03/03 09:14:59;;;;;;;50.38;27.00;;;;;;;24.00;46.85;102285.78;5029301;28;20105;-61
2022/03/03 09:17:24;;;;;;;51.60;28.05;;;;;;;24.01;46.83;102282.00;5032901;28;20021;-62
2022/03/03 09:19:50;;;;;;;52.65;27.50;;;;;;;24.03;47.41;102273.63;5025821;28;20025;-62
2022/03/03 09:22:15;;;;;;;58.15;27.33;;;;;;;24.03;47.51;102285.47;5026854;28;20044;-60
2022/03/03 09:24:41;;;;;;;51.85;26.80;;;;;;;24.03;47.27;102284.59;5024501;28;20053;-62
2022/03/03 09:27:06;;;;;;;48.95;26.98;;;;;;;24.04;47.05;102281.69;5029015;28;20024;-61
2022/03/03 09:29:35;;;;;;;57.80;29.58;;;;;;;24.05;47.43;102272.41;5025868;28;20033;-61
2022/03/03 09:32:02;;;;;;;52.38;28.88;;;;;;;24.06;46.93;102274.13;5030595;28;20079;-63
2022/03/03 09:34:28;;;;;;;50.10;27.95;;;;;;;24.07;47.23;102274.97;5027649;28;20049;-61
2022/03/03 09:36:54;;;;;;;54.45;29.77;;;;;;;24.03;47.14;102268.97;5030505;28;20038;-63
2022/03/03 09:39:20;;;;;;;60.55;34.13;;;;;;;23.90;47.60;102268.66;5031026;28;20029;-62
2022/03/03 09:41:46;;;;;;;62.42;33.05;;;;;;;23.99;47.93;102273.06;5029447;28;20461;-62
2022/03/03 09:44:13;;;;;;;71.63;37.35;;;;;;;23.96;47.84;102276.19;5025174;28;20034;-60
2022/03/03 09:46:39;;;;;;;58.60;33.50;;;;;;;23.87;47.44;102285.47;5028603;28;20036;-62
2022/03/03 09:49:04;;;;;;;63.83;35.42;;;;;;;23.81;47.91;102283.41;5031499;28;20029;-61
2022/03/03 09:51:29;;;;;;;67.78;34.92;;;;;;;23.84;47.48;102285.81;5026224;28;20044;-61
2022/03/03 09:53:55;;;;;;;65.88;33.25;;;;;;;23.87;47.76;102296.47;5028855;28;20108;-60
2022/03/03 09:56:21;;;;;;;66.15;35.08;;;;;;;23.86;47.11;102294.75;5026607;28;20052;-58
2022/03/03 09:58:46;;;;;;;64.80;34.72;;;;;;;23.88;46.90;102296.28;5031228;28;20065;-59
2022/03/03 10:01:13;;;;;;;59.58;34.10;;;;;;;23.86;47.16;102292.88;5025198;28;20025;-62
2022/03/03 10:03:38;;;;;;;70.78;36.13;;;;;;;23.89;46.38;102288.91;5036315;28;20098;-62
2022/03/03 10:06:04;;;;;;;62.33;33.72;;;;;;;23.96;46.29;102281.69;5031869;28;20041;-60
2022/03/03 10:08:31;;;;;;;67.20;35.70;;;;;;;23.85;46.20;102282.91;5025069;28;20025;-60
2022/03/03 10:11:01;;;;;;;64.40;35.50;;;;;;;23.83;45.62;102284.09;5027949;28;20052;-58
2022/03/03 10:13:42;;;;;;;65.70;36.58;;;;;;;23.87;45.99;102290.97;5034596;28;20021;-59
2022/03/03 10:16:08;;;;;;;69.53;36.97;;;;;;;23.94;45.17;102286.50;5031599;28;20025;-59
2022/03/03 10:18:33;;;;;;;61.53;36.25;;;;;;;23.90;45.64;102293.38;5049021;28;20028;-58
2022/03/03 10:21:00;;;;;;;64.90;35.83;;;;;;;23.88;45.77;102287.19;5029817;28;20025;-58
2022/03/03 10:23:36;;;;;;;62.55;36.88;;;;;;;23.90;45.41;102285.13;5031136;28;20033;-61
2022/03/03 10:26:08;;;;;;;63.67;35.35;;;;;;;23.89;45.21;102286.16;5032705;28;20045;-60
2022/03/03 10:28:36;;;;;;;66.95;36.13;;;;;;;23.87;45.20;102280.84;5034030;28;20056;-60
2022/03/03 10:31:05;;;;;;;63.83;37.30;;;;;;;23.91;45.07;102279.47;5028936;28;20445;-60
2022/03/03 10:33:38;;;;;;;66.43;36.45;;;;;;;23.92;45.17;102266.59;5032698;28;20044;-59
2022/03/03 10:36:04;;;;;;;63.95;35.28;;;;;;;23.90;45.78;102285.13;5023855;28;20017;-59
2022/03/03 10:38:31;;;;;;;69.78;38.40;;;;;;;23.93;45.30;102280.13;5031368;28;20451;-61
2022/03/03 10:40:57;;;;;;;79.07;41.42;;;;;;;23.89;46.28;102280.66;5021707;28;20032;-60
2022/03/03 10:43:22;;;;;;;79.18;43.45;;;;;;;23.86;46.34;102283.75;5030010;28;20029;-59
2022/03/03 10:46:01;;;;;;;74.82;41.13;;;;;;;23.87;45.92;102290.97;5033401;28;20414;-64
2022/03/03 10:48:27;;;;;;;74.53;41.35;;;;;;;23.92;46.13;102291.31;5033307;28;20025;-60
2022/03/03 10:50:55;;;;;;;71.95;40.00;;;;;;;23.92;45.80;102300.41;5029740;28;20022;-60
2022/03/03 10:53:23;;;;;;;70.40;39.92;;;;;;;23.98;45.52;102296.09;5032765;28;20033;-61
2022/03/03 10:56:05;;;;;;;72.07;41.60;;;;;;;23.94;45.78;102291.97;5032593;28;20116;-59
2022/03/03 10:58:52;;;;;;;70.10;38.78;;;;;;;23.93;46.30;102295.75;5032387;28;20026;-60
2022/03/03 11:01:21;;;;;;;68.60;39.00;;;;;;;23.90;46.21;102298.84;5033656;28;20025;-61
2022/03/03 11:03:53;;;;;;;70.32;40.35;;;;;;;23.91;45.92;102295.09;5033089;28;20050;-60
2022/03/03 11:06:24;;;;;;;73.57;39.78;;;;;;;23.95;45.96;102310.19;5029705;28;20530;-60
2022/03/03 11:08:50;;;;;;;71.55;42.35;;;;;;;23.92;46.57;102302.28;5031791;28;20025;-60
2022/03/03 11:11:16;;;;;;;71.68;41.47;;;;;;;23.91;47.06;102303.31;5026253;28;20030;-61
2022/03/03 11:13:45;;;;;;;78.05;45.22;;;;;;;23.84;47.25;102299.53;5033115;28;20040;-59
2022/03/03 11:16:11;;;;;;;77.50;43.65;;;;;;;23.90;47.34;102301.59;5033289;28;20041;-59
2022/03/03 11:18:36;;;;;;;69.95;40.78;;;;;;;23.95;46.82;102299.19;5031128;28;20072;-58
2022/03/03 11:21:03;;;;;;;81.45;44.17;;;;;;;23.94;47.66;102305.72;5033470;28;20038;-59